Tiempo atmosférico en la estación meteorológica de Barco De Avila, Ávila (1012 m.)



Fecha
DESCASC
Temp. máxima en grados centígrados (hora)
DESCASC
Temp. mínima en grados centígrados (hora)
DESCASC
Temp. media en grados centígrados
DESCASC
Racha de viento máxima en m/sg (hora)
DESCASC
Velocidad máxima media en intervalos de 10 minutos(hora)
DESCASC
Precipitaciones diarias en mm
DESCASC
Precipitaciones de 00:00 a 06:00 en mm
DESCASC
Precipitaciones de 06:00 a 12:00 en mm
DESCASC
Precipitaciones de 12:00 a 18:00 en mm
DESCASC
Precipitaciones de 18:00 a 24:00 en mm
DESCASC
06-07-2020 33.8 (16:50) 11.5 (07:00) 22.6 7.78 (15:40) 3.89 (06:40) 0 0 0 0 0
05-07-2020 32.9 (16:20) 9.6 (06:40) 21.3 7.22 (04:50) 4.72 (04:50) 0 0 0 0 0
04-07-2020 30.5 (17:00) 7.9 (07:20) 19.2 7.22 (07:00) 4.17 (07:00) 0 0 0 0 0
03-07-2020 28 (18:30) 6.7 (07:10) 17.3 6.39 (16:40) 3.33 (06:30) 0 0 0 0 0
02-07-2020 26.4 (15:30) 9.5 (00:00) 17.9 9.72 (16:00) 6.39 (16:00) 0 0 0 0 0
01-07-2020 29.4 (16:10) 11.2 (00:00) 20.3 8.33 (18:10) 5 (17:00) 0 0 0 0 0
30-06-2020 30.8 (16:10) 12.6 (00:00) 21.7 9.72 (19:00) 5.28 (15:40) 0 0 0 0 0
29-06-2020 30.8 (17:30) 11 (00:00) 20.9 8.06 (16:20) 5 (16:20) 0 0 0 0 0
28-06-2020 29.2 (16:50) 9.9 (00:00) 19.6 7.5 (17:10) 3.61 (18:10) 0 0 0 0 0
27-06-2020 26.7 (17:40) 9.2 (00:00) 18 7.78 (16:40) 3.61 (13:40) 0 0 0 0 0
26-06-2020 24.7 (17:10) 9.8 (00:00) 17.3 11.67 (12:40) 7.5 (14:20) 0 0 0 0 0
25-06-2020 27.7 (16:30) 13.6 (00:00) 20.7 10 (13:30) 6.11 (13:30) 0 0 0 0 0
24-06-2020 31.3 (14:10) 14.6 (00:00) 22.9 11.39 (18:50) 6.39 (18:50) 0 0 0 0 0
23-06-2020 32 (16:30) 12.6 (00:00) 22.3 7.5 (18:30) 4.72 (08:50) 0 0 0 0 0
22-06-2020 31.3 (16:40) 9.3 (00:00) 20.3 6.39 (18:50) 4.17 (18:50) 0 0 0 0 0
21-06-2020 29 (17:30) 7.6 (00:00) 18.3 7.5 (14:10) 3.89 (14:20) 0 0 0 0 0
20-06-2020 26.7 (16:00) 7.2 (00:00) 17 9.44 (18:10) 5.83 (18:10) 0 0 0 0 0
19-06-2020 25.1 (16:50) 5.6 (00:00) 15.4 9.44 (13:30) 5.28 (17:20) 0 0 0 0 0
18-06-2020 24.7 (18:00) 5.8 (00:00) 15.3 11.94 (18:10) 4.72 (16:30) 0 0 0 0 0
17-06-2020 21.5 (16:00) 6.6 (00:00) 14 6.94 (16:30) 3.89 (16:30) 0 0 0 0 0
16-06-2020 21.8 (15:50) 10.8 (00:00) 16.3 10.56 (17:20) 5.83 (15:00) 0 0 0 0 0
15-06-2020 21.4 (17:00) 6 (00:00) 13.7 8.06 (20:50) 4.17 (19:40) 0 0 0 0 0
14-06-2020 20.7 (17:30) 5.2 (00:00) 13 8.61 (17:50) 4.72 (17:50) 0 0 0 0 0
13-06-2020 18.7 (16:50) 6.7 (00:00) 12.7 9.72 (17:40) 6.11 (17:30) 0 0 0 0 0
12-06-2020 14.1 (17:10) 3.1 (00:00) 8.6 12.22 (16:50) 7.5 (16:50) 6.4 0 0 0 6.4
11-06-2020 19.3 (14:50) 4.9 (00:00) 12.1 12.78 (16:50) 8.61 (16:50) 0 0 0 0 0
10-06-2020 22.6 (17:30) 4.9 (00:00) 13.8 9.44 (16:40) 5.83 (17:00) 0 0 0 0 0
09-06-2020 20.9 (18:40) 2.5 (00:00) 11.7 9.17 (16:20) 4.72 (14:00) 0 0 0 0 0
08-06-2020 19.3 (18:40) 7.9 (23:59) 13.6 9.44 (15:10) 3.89 (14:50) 0 0 0 0 0
07-06-2020 19.5 (18:50) 7.7 (00:00) 13.6 10.28 (15:50) 5.83 (16:30) 0 0 0 0 0

Gráficas

Temp. máximas Temp. mínimas Temp. medias Precipitaciones Rachas de viento máximas Velocidades máximas media en intervalos de 10 minutos

Datos horarios

Fecha y hora oficial Temperatura (ºC) Velocidad del viento (km/h) Dirección del viento Racha (km/h) Dirección de racha Precipitación (mm) Presión (hPa) Tendencia (hPa) Humedad (%)
2020-07-06 23:00:00 21.7 9 Oeste 17 Oeste 0 -- -- 62
2020-07-06 22:00:00 25 8 Sudoeste 11 Oeste 0 -- -- 56
2020-07-06 21:00:00 30.7 7 Noroeste 18 Noroeste 0 -- -- 31
2020-07-06 20:00:00 32.5 8 Norte 22 Noroeste 0 -- -- 27
2020-07-06 19:00:00 33.1 8 Noroeste 24 Noroeste 0 -- -- 25
2020-07-06 18:00:00 33.7 9 Oeste 22 Noroeste 0 -- -- 25
2020-07-06 17:00:00 33.7 8 Norte 24 Norte 0 -- -- 26
2020-07-06 16:00:00 33 13 Oeste 28 Norte 0 -- -- 26
2020-07-06 15:00:00 32.5 7 Noroeste 22 Norte 0 -- -- 26
2020-07-06 14:00:00 32.2 5 Norte 20 Norte 0 -- -- 27
2020-07-06 13:00:00 31.4 6 Norte 17 Norte 0 -- -- 25
2020-07-06 12:00:00 29.7 6 Norte 13 Norte 0 -- -- 31
2020-07-06 11:00:00 25.9 2 Noroeste 9 Sudoeste 0 -- -- 39
2020-07-06 10:00:00 21.7 7 Oeste 15 Sudoeste 0 -- -- 46
2020-07-06 09:00:00 17.4 9 Sudoeste 15 Oeste 0 -- -- 59
2020-07-06 08:00:00 12.9 7 Sudoeste 14 Sudoeste 0 -- -- 70
2020-07-06 07:00:00 11.5 10 Sudoeste 19 Sudoeste 0 -- -- 74
2020-07-06 06:00:00 12.6 13 Sudoeste 18 Sudoeste 0 -- -- 70
2020-07-06 05:00:00 13.1 11 Sudoeste 15 Oeste 0 -- -- 68
2020-07-06 04:00:00 13.8 9 Sudoeste 18 Sudoeste 0 -- -- 65
2020-07-06 03:00:00 14.6 9 Sudoeste 17 Sudoeste 0 -- -- 64
2020-07-06 02:00:00 15.5 9 Sudoeste 17 Sudoeste 0 -- -- 59
2020-07-06 01:00:00 15.5 11 Sudoeste 15 Sudoeste 0 -- -- 62
2020-07-06 00:00:00 17.3 7 Sudoeste 11 Oeste 0 -- -- 60
2020-07-05 23:00:00 19.8 8 Sudoeste 13 Sudoeste 0 -- -- 57
2020-07-05 22:00:00 23.1 5 Sur 13 Oeste 0 -- -- 46
2020-07-05 21:00:00 28.2 9 Oeste 15 Oeste 0 -- -- 33
2020-07-05 20:00:00 31 12 Oeste 20 Noroeste 0 -- -- 26
2020-07-05 19:00:00 32.5 8 Noroeste 18 Oeste 0 -- -- 20
2020-07-05 18:00:00 32.6 8 Noroeste 24 Oeste 0 -- -- 21
2020-07-05 17:00:00 32.9 8 Noroeste 23 Noroeste 0 -- -- 21
2020-07-05 16:00:00 32.3 9 Noroeste 25 Norte 0 -- -- 21
2020-07-05 15:00:00 32.2 9 Norte 18 Norte 0 -- -- 20
2020-07-05 14:00:00 31.8 7 Oeste 19 Noroeste 0 -- -- 22
2020-07-05 13:00:00 30.8 8 Sudoeste 19 Sudoeste 0 -- -- 22
2020-07-05 12:00:00 28.8 3 Sur 13 Oeste 0 -- -- 29
2020-07-05 11:00:00 25.3 10 Oeste 18 Sudoeste 0 -- -- 34
2020-07-05 10:00:00 22.6 9 Sudoeste 21 Oeste 0 -- -- 38
2020-07-05 09:00:00 17.3 12 Sudoeste 22 Oeste 0 -- -- 49
2020-07-05 08:00:00 12.1 15 Sudoeste 24 Oeste 0 -- -- 60
2020-07-05 07:00:00 10.2 14 Sudoeste 24 Sudoeste 0 -- -- 65
2020-07-05 06:00:00 11.3 9 Sudoeste 21 Sudoeste 0 -- -- 61
2020-07-05 05:00:00 11.1 15 Sudoeste 26 Sudoeste 0 -- -- 64
2020-07-05 04:00:00 11.2 14 Sudoeste 20 Sudoeste 0 -- -- 63
2020-07-05 03:00:00 11.2 9 Sudoeste 19 Sudoeste 0 -- -- 66
2020-07-05 02:00:00 12.7 8 Sudoeste 17 Sudoeste 0 -- -- 62
2020-07-05 01:00:00 14.5 10 Sudoeste 14 Sudoeste 0 -- -- 55
2020-07-05 00:00:00 15.9 9 Oeste 13 Sudoeste 0 -- -- 55
2020-07-04 23:00:00 18.9 8 Sudoeste 13 Sudoeste 0 -- -- 50
2020-07-04 22:00:00 25 4 Norte 16 Noroeste 0 -- -- 26
2020-07-04 21:00:00 28.1 12 Norte 24 Norte 0 -- -- 23
2020-07-04 20:00:00 29.5 11 Noroeste 24 Noroeste 0 -- -- 22
2020-07-04 19:00:00 29.9 14 Norte 26 Noroeste 0 -- -- 22
2020-07-04 18:00:00 30.4 9 Noroeste 25 Noroeste 0 -- -- 22
2020-07-04 17:00:00 30.5 8 Noroeste 24 Norte 0 -- -- 23
2020-07-04 16:00:00 29.8 9 Noroeste 25 Noroeste 0 -- -- 23
2020-07-04 15:00:00 29.4 11 Noroeste 23 Norte 0 -- -- 24
2020-07-04 14:00:00 28.9 11 Norte 24 Norte 0 -- -- 24
2020-07-04 13:00:00 27.3 8 Norte 20 Norte 0 -- -- 26
2020-07-04 12:00:00 25.6 8 Nordeste 14 Norte 0 -- -- 30
2020-07-04 11:00:00 22.6 2 Noroeste 10 Oeste 0 -- -- 38
2020-07-04 10:00:00 18.7 6 Oeste 12 Sudoeste 0 -- -- 49
2020-07-04 09:00:00 14.1 7 Sudoeste 17 Sudoeste 0 -- -- 61
2020-07-04 08:00:00 9.7 5 Sudoeste 19 Sudoeste 0 -- -- 70
2020-07-04 07:00:00 8.1 15 Sudoeste 26 Sudoeste 0 -- -- 77
2020-07-04 06:00:00 8 9 Sudoeste 17 Sudoeste 0 -- -- 77
2020-07-04 05:00:00 9.8 10 Sudoeste 17 Oeste 0 -- -- 69
2020-07-04 04:00:00 10.3 9 Oeste 19 Sur 0 -- -- 67
2020-07-04 03:00:00 11 8 Sudoeste 14 Sudoeste 0 -- -- 65
2020-07-04 02:00:00 11.4 11 Sudoeste 17 Sudoeste 0 -- -- 65
2020-07-04 01:00:00 12.2 9 Sudoeste 13 Oeste 0 -- -- 65
2020-07-04 00:00:00 13.6 6 Sudoeste 14 Sudoeste 0 -- -- 62
2020-07-03 23:00:00 16.3 9 Oeste 13 Oeste 0 -- -- 58
2020-07-03 22:00:00 22.3 2 Sur 15 Norte 0 -- -- 33
2020-07-03 21:00:00 25.6 9 Norte 20 Norte 0 -- -- 26
2020-07-03 20:00:00 26.8 11 Norte 19 Noroeste 0 -- -- 23
2020-07-03 19:00:00 27.6 8 Norte 19 Norte 0 -- -- 22
2020-07-03 18:00:00 27.8 8 Noroeste 23 Norte 0 -- -- 22
2020-07-03 17:00:00 27.8 10 Noroeste 23 Noroeste 0 -- -- 25
2020-07-03 16:00:00 27.3 10 Noroeste 21 Noroeste 0 -- -- 27
2020-07-03 15:00:00 26.1 6 Nordeste 20 Este 0 -- -- 26
2020-07-03 14:00:00 24.9 6 Nordeste 19 Norte 0 -- -- 29
2020-07-03 13:00:00 23.5 9 Norte 22 Norte 0 -- -- 35
2020-07-03 12:00:00 21.4 7 Nordeste 14 Nordeste 0 -- -- 43
2020-07-03 11:00:00 19.1 2 Este 17 Noroeste 0 -- -- 48
2020-07-03 10:00:00 15.4 4 Oeste 8 Sudoeste 0 -- -- 61
2020-07-03 09:00:00 12.2 2 Sudoeste 12 Sudoeste 0 -- -- 69
2020-07-03 08:00:00 8.4 6 Sudoeste 14 Sudoeste 0 -- -- 83
2020-07-03 07:00:00 6.9 12 Sudoeste 21 Sur 0 -- -- 86
2020-07-03 06:00:00 7.1 6 Oeste 12 Sudoeste 0 -- -- 86
2020-07-03 05:00:00 8 9 Sudoeste 12 Oeste 0 -- -- 83
2020-07-03 04:00:00 8.5 4 Sudoeste 6 Sudoeste 0 -- -- 81
2020-07-03 03:00:00 9.9 4 Oeste 6 Oeste 0 -- -- 77
2020-07-03 02:00:00 11 2 Oeste 5 Sudoeste 0 -- -- 72
2020-07-03 01:00:00 12.7 3 Este 9 Este 0 -- -- 62
2020-07-03 00:00:00 16 4 Este 12 Este 0 -- -- 51
2020-07-02 23:00:00 18.6 5 Este 18 Norte 0 -- -- 46
2020-07-02 22:00:00 20.6 7 Norte 22 Norte 0 -- -- 41
2020-07-02 21:00:00 23.6 10 Noroeste 25 Oeste 0 -- -- 32
2020-07-02 20:00:00 25.3 9 Noroeste 24 Sudoeste 0 -- -- 33
2020-07-02 19:00:00 25.2 15 Sudoeste 30 Sudoeste 0 -- -- 38
2020-07-02 18:00:00 25.5 18 Sudoeste 34 Sudoeste 0 -- -- 37
2020-07-02 17:00:00 26 19 Sudoeste 35 Oeste 0 -- -- 39
2020-07-02 16:00:00 25.8 23 Sudoeste 35 Oeste 0 -- -- 37
2020-07-02 15:00:00 26.1 15 Oeste 32 Oeste 0 -- -- 38
2020-07-02 14:00:00 25.5 12 Noroeste 24 Oeste 0 -- -- 36
2020-07-02 13:00:00 24.2 7 Norte 23 Nordeste 0 -- -- 45
2020-07-02 12:00:00 22.3 9 Nordeste 20 Norte 0 -- -- 53
2020-07-02 11:00:00 20 3 Norte 13 Nordeste 0 -- -- 61
2020-07-02 10:00:00 17.8 5 Nordeste 13 Nordeste 0 -- -- 69
2020-07-02 09:00:00 13.5 3 Sudoeste 5 Sudoeste 0 -- -- 81
2020-07-02 08:00:00 10.9 0 Calma 8 Sudoeste 0 -- -- 87
2020-07-02 07:00:00 9.8 6 Oeste 10 Sudoeste 0 -- -- 91
2020-07-02 06:00:00 10.1 5 Oeste 7 Oeste 0 -- -- 90
2020-07-02 05:00:00 10.9 3 Sudoeste 6 Sudoeste 0 -- -- 87
2020-07-02 04:00:00 12.3 3 Oeste 10 Sudoeste 0 -- -- 85
2020-07-02 03:00:00 13 8 Sudoeste 11 Oeste 0 -- -- 83
2020-07-02 02:00:00 14.9 5 Sudoeste 9 Este 0 -- -- 76
2020-07-02 01:00:00 19.1 4 Nordeste 14 Nordeste 0 -- -- 60
2020-07-02 00:00:00 20.8 8 Nordeste 15 Nordeste 0 -- -- 55
2020-07-01 23:00:00 20.4 8 Este 12 Este 0 -- -- 55
2020-07-01 22:00:00 22.8 5 Oeste 10 Sudoeste 0 -- -- 56
2020-07-01 21:00:00 26.3 4 Oeste 25 Sudoeste 0 -- -- 40
2020-07-01 20:00:00 27.2 12 Oeste 27 Sudoeste 0 -- -- 38
2020-07-01 19:00:00 27.3 15 Sudoeste 30 Sudoeste 0 -- -- 34
2020-07-01 18:00:00 28.9 16 Sudoeste 27 Sudoeste 0 -- -- 36
2020-07-01 17:00:00 29 18 Sudoeste 28 Sudoeste 0 -- -- 35
2020-07-01 16:00:00 29.3 15 Sudoeste 28 Norte 0 -- -- 34
2020-07-01 15:00:00 29 11 Oeste 27 Noroeste 0 -- -- 35
2020-07-01 14:00:00 28.3 11 Norte 25 Noroeste 0 -- -- 36
2020-07-01 13:00:00 26.9 5 Este 18 Norte 0 -- -- 47
2020-07-01 12:00:00 25.2 9 Norte 15 Norte 0 -- -- 52
2020-07-01 11:00:00 23.2 6 Nordeste 15 Nordeste 0 -- -- 56
2020-07-01 10:00:00 20.3 2 Sur 6 Sur 0 -- -- 63
2020-07-01 09:00:00 15.9 0 Calma 5 Sudoeste 0 -- -- 70
2020-07-01 08:00:00 12.5 2 Sudeste 16 Sudoeste 0 -- -- 77
2020-07-01 07:00:00 11.2 11 Sudoeste 19 Sudoeste 0 -- -- 80
2020-07-01 06:00:00 12.1 14 Sudoeste 18 Sudoeste 0 -- -- 80
2020-07-01 05:00:00 12.8 10 Sudoeste 14 Sudoeste 0 -- -- 77
2020-07-01 04:00:00 14 6 Oeste 15 Sudoeste -- -- -- 74
2020-07-01 03:00:00 13.9 9 Sudoeste 15 Sudoeste 0 -- -- 75
2020-07-01 02:00:00 15.3 6 Sudoeste 9 Sudoeste 0 -- -- 74
2020-07-01 01:00:00 17.1 5 Este 12 Oeste 0 -- -- 67
2020-07-01 00:00:00 18.6 3 Sur 13 Sudoeste 0 -- -- 63
2020-06-30 23:00:00 20.2 5 Sur 13 Oeste 0 -- -- 60
2020-06-30 22:00:00 23.4 8 Oeste 15 Oeste 0 -- -- 53
2020-06-30 21:00:00 26.9 9 Oeste 21 Sudoeste 0 -- -- 42
2020-06-30 20:00:00 28.7 14 Oeste 30 Oeste 0 -- -- 35
2020-06-30 19:00:00 29.7 19 Oeste 35 Oeste 0 -- -- 34
2020-06-30 18:00:00 30.5 17 Oeste 32 Sudoeste 0 -- -- 33
2020-06-30 17:00:00 30.6 19 Oeste 29 Oeste 0 -- -- 32
2020-06-30 16:00:00 30.5 19 Sudoeste 34 Sudoeste 0 -- -- 34
2020-06-30 15:00:00 30.4 17 Sudoeste 30 Sudoeste 0 -- -- 32
2020-06-30 14:00:00 29.9 18 Sudoeste 27 Oeste 0 -- -- 33
2020-06-30 13:00:00 28.4 8 Sudoeste 21 Oeste 0 -- -- 38
2020-06-30 12:00:00 29.2 7 Sudoeste 15 Sudoeste 0 -- -- 35
2020-06-30 11:00:00 26.4 4 Oeste 11 Sudoeste 0 -- -- 44
2020-06-30 10:00:00 22.7 8 Sudoeste 16 Sudoeste 0 -- -- 53
2020-06-30 09:00:00 17.6 14 Sudoeste 21 Sudoeste 0 -- -- 66
2020-06-30 08:00:00 15.2 12 Sudoeste 21 Sudoeste 0 -- -- 67
2020-06-30 07:00:00 13 13 Sudoeste 21 Sudoeste 0 -- -- 76
2020-06-30 06:00:00 13.2 12 Sudoeste 21 Sudoeste 0 -- -- 75
2020-06-30 05:00:00 14.1 12 Sudoeste 21 Sudoeste 0 -- -- 70
2020-06-30 04:00:00 14.4 16 Sudoeste 21 Sudoeste 0 -- -- 68
2020-06-30 03:00:00 14.2 9 Sudoeste 13 Oeste 0 -- -- 68
2020-06-30 02:00:00 14.5 9 Sudoeste 19 Sudoeste 0 -- -- 66
2020-06-30 01:00:00 14.8 11 Sudoeste 17 Oeste 0 -- -- 67
2020-06-30 00:00:00 17.4 6 Oeste 13 Oeste 0 -- -- 59
2020-06-29 23:00:00 18.9 8 Sudoeste 14 Sudoeste 0 -- -- 56
2020-06-29 22:00:00 22.8 6 Sudoeste 14 Oeste 0 -- -- 48
2020-06-29 21:00:00 27.3 10 Sudoeste 19 Oeste 0 -- -- 33
2020-06-29 20:00:00 29 12 Oeste 22 Sudoeste 0 -- -- 32
2020-06-29 19:00:00 30.3 12 Oeste 21 Sudoeste 0 -- -- 29
2020-06-29 18:00:00 30.4 15 Sudoeste 25 Sudoeste 0 -- -- 32
2020-06-29 17:00:00 30.5 15 Sudoeste 29 Sudoeste 0 -- -- 32
2020-06-29 16:00:00 30.5 17 Sudoeste 28 Sudoeste 0 -- -- 31
2020-06-29 15:00:00 30 15 Oeste 28 Sudoeste 0 -- -- 30
2020-06-29 14:00:00 28.8 15 Oeste 24 Sudoeste 0 -- -- 37
2020-06-29 13:00:00 27.6 6 Oeste 17 Norte 0 -- -- 44
2020-06-29 12:00:00 25.4 9 Norte 18 Nordeste 0 -- -- 49
2020-06-29 11:00:00 22.8 5 Norte 9 Norte 0 -- -- 56
2020-06-29 10:00:00 19.7 3 Oeste 11 Sudoeste 0 -- -- 67
2020-06-29 09:00:00 15.9 8 Sudoeste 16 Sudoeste 0 -- -- 80
2020-06-29 08:00:00 12.7 9 Sudoeste 14 Sudoeste 0 -- -- 88
2020-06-29 07:00:00 11 6 Sudoeste 13 Sudoeste 0 -- -- 91
2020-06-29 06:00:00 11.8 8 Oeste 13 Sudoeste 0 -- -- 90
2020-06-29 05:00:00 12.1 4 Sudoeste 10 Oeste 0 -- -- 89
2020-06-29 04:00:00 12.9 6 Oeste 9 Sudoeste 0 -- -- 88
2020-06-29 03:00:00 14 3 Oeste 7 Sudoeste 0 -- -- 83
2020-06-29 02:00:00 15.2 3 Oeste 5 Sudoeste 0 -- -- 79
2020-06-29 01:00:00 17.2 3 Oeste 5 Oeste 0 -- -- 72
2020-06-29 00:00:00 20.1 4 Este 12 Este 0 -- -- 58
2020-06-28 23:00:00 22.2 4 Este 17 Norte 0 -- -- 52
2020-06-28 22:00:00 24.6 9 Norte 17 Norte 0 -- -- 44
2020-06-28 21:00:00 26.9 9 Noroeste 20 Noroeste 0 -- -- 40
2020-06-28 20:00:00 28.1 10 Noroeste 22 Norte 0 -- -- 38
2020-06-28 19:00:00 28.6 10 Noroeste 23 Noroeste 0 -- -- 38
2020-06-28 18:00:00 29 8 Noroeste 27 Norte 0 -- -- 39
2020-06-28 17:00:00 29.2 6 Norte 17 Noroeste 0 -- -- 38
2020-06-28 16:00:00 28.7 9 Noroeste 23 Norte 0 -- -- 39
2020-06-28 15:00:00 27.4 8 Norte 20 Nordeste 0 -- -- 41
2020-06-28 14:00:00 26.1 8 Norte 24 Norte 0 -- -- 45
2020-06-28 13:00:00 25.3 8 Nordeste 19 Nordeste 0 -- -- 50
2020-06-28 12:00:00 23.5 9 Norte 18 Norte 0 -- -- 53
2020-06-28 11:00:00 21.4 4 Este 8 Este 0 -- -- 59
2020-06-28 10:00:00 18.4 0 Calma 5 Sudoeste 0 -- -- 67
2020-06-28 09:00:00 14.6 4 Sudoeste 7 Sudoeste 0 -- -- 79
2020-06-28 08:00:00 11.6 6 Oeste 15 Sudoeste 0 -- -- 89
2020-06-28 07:00:00 9.9 9 Sudoeste 13 Sudoeste 0 -- -- 92
2020-06-28 06:00:00 10.8 7 Sudoeste 10 Sudoeste 0 -- -- 90
2020-06-28 05:00:00 10.6 4 Oeste 8 Oeste 0 -- -- 90
2020-06-28 04:00:00 11.4 3 Sudoeste 6 Sudoeste 0 -- -- 89
2020-06-28 03:00:00 12.3 4 Sudoeste 8 Sudoeste 0 -- -- 87
2020-06-28 02:00:00 13.5 5 Sudoeste 7 Sudoeste 0 -- -- 83
2020-06-28 01:00:00 15 4 Sudoeste 6 Sudoeste 0 -- -- 79
2020-06-28 00:00:00 17.9 2 Sudoeste 9 Este 0 -- -- 66
2020-06-27 23:00:00 19.7 5 Este 18 Norte 0 -- -- 59
2020-06-27 22:00:00 21.8 10 Norte 21 Noroeste 0 -- -- 53
2020-06-27 21:00:00 24 9 Noroeste 21 Norte 0 -- -- 48
2020-06-27 20:00:00 25.4 11 Norte 23 Noroeste 0 -- -- 44
2020-06-27 19:00:00 26.1 12 Noroeste 24 Noroeste 0 -- -- 42
2020-06-27 18:00:00 26.7 11 Noroeste 25 Noroeste 0 -- -- 40
2020-06-27 17:00:00 26.5 13 Noroeste 28 Norte 0 -- -- 41
2020-06-27 16:00:00 25.1 10 Norte 27 Noroeste 0 -- -- 45
2020-06-27 15:00:00 24.6 12 Norte 24 Norte 0 -- -- 49
2020-06-27 14:00:00 23.8 10 Norte 24 Norte 0 -- -- 50
2020-06-27 13:00:00 23.1 8 Norte 19 Nordeste 0 -- -- 51
2020-06-27 12:00:00 21.5 5 Norte 14 Norte 0 -- -- 54
2020-06-27 11:00:00 19.5 3 Norte 13 Norte 0 -- -- 61
2020-06-27 10:00:00 17.5 3 Norte 8 Nordeste 0 -- -- 68
2020-06-27 09:00:00 14 3 Sur 4 Sudoeste 0 -- -- 78
2020-06-27 08:00:00 10.7 3 Sudoeste 8 Sudoeste 0 -- -- 88
2020-06-27 07:00:00 9.3 6 Sudoeste 9 Sudoeste 0 -- -- 92
2020-06-27 06:00:00 9.7 4 Oeste 6 Sudoeste 0 -- -- 90
2020-06-27 05:00:00 10.1 5 Sudoeste 8 Oeste 0 -- -- 89
2020-06-27 04:00:00 10.6 2 Sudoeste 6 Sudoeste 0 -- -- 86
2020-06-27 03:00:00 11.3 0 Calma 10 Sudoeste 0 -- -- 81
2020-06-27 02:00:00 12.2 8 Sudoeste 11 Sudoeste 0 -- -- 79
2020-06-27 01:00:00 15.2 2 Nordeste 9 Este 0 -- -- 67
2020-06-27 00:00:00 14.5 4 Este 10 Este 0 -- -- 64
2020-06-26 23:00:00 15.9 4 Sur 10 Oeste 0 -- -- 60
2020-06-26 22:00:00 19.1 7 Oeste 13 Sudoeste 0 -- -- 48
2020-06-26 21:00:00 21.8 9 Oeste 21 Oeste 0 -- -- 38
2020-06-26 20:00:00 22.6 11 Oeste 29 Oeste 0 -- -- 37
2020-06-26 19:00:00 22 16 Oeste 30 Sudoeste 0 -- -- 38
2020-06-26 18:00:00 24.2 18 Oeste 32 Oeste 0 -- -- 35
2020-06-26 17:00:00 24.5 22 Sudoeste 35 Sudoeste 0 -- -- 33
2020-06-26 16:00:00 24.2 22 Sudoeste 38 Oeste 0 -- -- 32
2020-06-26 15:00:00 23.8 21 Sudoeste 41 Sudoeste 0 -- -- 39
2020-06-26 14:00:00 23.6 24 Oeste 42 Sudoeste 0 -- -- 37
2020-06-26 13:00:00 23 21 Sudoeste 42 Sudoeste 0 -- -- 36
2020-06-26 12:00:00 20.6 16 Oeste 24 Oeste 0 -- -- 48
2020-06-26 11:00:00 21.1 15 Oeste 24 Sudoeste 0 -- -- 43
2020-06-26 10:00:00 19.4 0 Calma 16 Nordeste 0 -- -- 55
2020-06-26 09:00:00 15.6 2 Este 10 Este 0 -- -- 70
2020-06-26 08:00:00 9.9 3 Sur 9 Oeste 0 -- -- 88
2020-06-26 07:00:00 10.1 4 Sudoeste 9 Sudoeste 0 -- -- 89
2020-06-26 06:00:00 11.2 7 Sudoeste 13 Sudoeste 0 -- -- 88
2020-06-26 05:00:00 11.3 8 Sudoeste 14 Sudoeste 0 -- -- 88
2020-06-26 04:00:00 12.1 4 Sudoeste 12 Sudoeste 0 -- -- 85
2020-06-26 03:00:00 12.7 6 Sudoeste 9 Sudoeste 0 -- -- 84
2020-06-26 02:00:00 13.8 0 Calma 12 Oeste 0 -- -- 80
2020-06-26 01:00:00 15.1 9 Oeste 13 Sudoeste 0 -- -- 77
2020-06-26 00:00:00 17.2 0 Calma 10 Sudoeste 0 -- -- 70
2020-06-25 23:00:00 19.1 0 Calma 12 Oeste 0 -- -- 64
2020-06-25 22:00:00 22.1 7 Oeste 17 Sudoeste 0 -- -- 55
2020-06-25 21:00:00 24.9 13 Oeste 21 Oeste 0 -- -- 45
2020-06-25 20:00:00 25.5 13 Sudoeste 23 Oeste 0 -- -- 42
2020-06-25 19:00:00 26.3 10 Sudoeste 24 Sudoeste 0 -- -- 39
2020-06-25 18:00:00 27.3 11 Oeste 36 Sudoeste 0 -- -- 36
2020-06-25 17:00:00 27.1 18 Oeste 36 Oeste 0 -- -- 38
2020-06-25 16:00:00 26.5 17 Sudoeste 33 Oeste 0 -- -- 38
2020-06-25 15:00:00 27.4 17 Oeste 32 Oeste 0 -- -- 37
2020-06-25 14:00:00 26.9 18 Oeste 36 Oeste 0 -- -- 39
2020-06-25 13:00:00 26.3 21 Oeste 35 Sudoeste 0 -- -- 38
2020-06-25 12:00:00 25.6 18 Sudoeste 31 Sudoeste 0 -- -- 43
2020-06-25 11:00:00 23.9 16 Sudoeste 28 Oeste 0 -- -- 48
2020-06-25 10:00:00 22.7 9 Sudoeste 14 Sudoeste 0 -- -- 54
2020-06-25 09:00:00 18.4 8 Oeste 17 Oeste 0 -- -- 66
2020-06-25 08:00:00 14.6 9 Sudoeste 16 Sudoeste 0 -- -- 77
2020-06-25 07:00:00 13.6 9 Sudoeste 19 Sudoeste 0 -- -- 80
2020-06-25 06:00:00 14.2 13 Sudoeste 18 Oeste 0 -- -- 78
2020-06-25 05:00:00 14.1 9 Sudoeste 15 Oeste 0 -- -- 80
2020-06-25 04:00:00 14.5 6 Sudoeste 11 Oeste 0 -- -- 80
2020-06-25 03:00:00 15.8 5 Sudoeste 15 Oeste 0 -- -- 75
2020-06-25 02:00:00 16.7 6 Sudoeste 12 Sudoeste 0 -- -- 72
2020-06-25 01:00:00 17.9 6 Sudoeste 9 Sudoeste 0 -- -- 70
2020-06-25 00:00:00 18.9 5 Sur 12 Oeste 0 -- -- 67
2020-06-24 23:00:00 20.5 8 Sudoeste 12 Sudoeste 0 -- -- 62
2020-06-24 22:00:00 24 6 Oeste 12 Sur 0 -- -- 51
2020-06-24 21:00:00 26.6 9 Sur 21 Sur 0 -- -- 40
2020-06-24 20:00:00 28.2 14 Sur 33 Sur 0 -- -- 36
2020-06-24 19:00:00 29.1 23 Sur 41 Sudoeste 0 -- -- 35
2020-06-24 18:00:00 29.7 19 Sur 31 Sur 0 -- -- 35
2020-06-24 17:00:00 30 19 Sur 33 Sur 0 -- -- 34
2020-06-24 16:00:00 30.3 21 Sur 36 Sur 0 -- -- 31
2020-06-24 15:00:00 30.6 20 Sur 34 Sur 0 -- -- 32
2020-06-24 14:00:00 31.2 10 Sudeste 31 Sudoeste 0 -- -- 27
2020-06-24 13:00:00 30.4 18 Sur 31 Sudoeste 0 -- -- 29
2020-06-24 12:00:00 28.2 8 Sudoeste 23 Sudoeste 0 -- -- 35
2020-06-24 11:00:00 26.8 12 Sudoeste 21 Sudoeste 0 -- -- 39
2020-06-24 10:00:00 25 13 Sudoeste 18 Sudoeste 0 -- -- 43
2020-06-24 09:00:00 21.9 9 Sudoeste 17 Oeste 0 -- -- 46
2020-06-24 08:00:00 23.1 5 Sur 37 Oeste 0 -- -- 41
2020-06-24 07:00:00 20.5 8 Noroeste 25 Oeste 0 -- -- 33
2020-06-24 06:00:00 15.9 15 Sudoeste 26 Oeste 0 -- -- 64
2020-06-24 05:00:00 16.3 15 Sudoeste 26 Sudoeste 0 -- -- 61
2020-06-24 04:00:00 16 9 Sudoeste 19 Oeste 0 -- -- 62
2020-06-24 03:00:00 14.7 11 Oeste 16 Sudoeste 0 -- -- 71
2020-06-24 02:00:00 15 10 Sudoeste 21 Oeste 0 -- -- 71
2020-06-24 01:00:00 16.6 13 Sudoeste 17 Sudoeste 0 -- -- 65
2020-06-24 00:00:00 18.2 11 Sudoeste 17 Sudoeste 0 -- -- 61
2020-06-23 23:00:00 19.9 6 Sudoeste 12 Sudoeste 0 -- -- 64
2020-06-23 22:00:00 23.6 7 Sudoeste 12 Sudoeste 0 -- -- 51
2020-06-23 21:00:00 28.2 6 Oeste 14 Sudoeste 0 -- -- 40
2020-06-23 20:00:00 30.1 9 Sudoeste 24 Oeste 0 -- -- 31
2020-06-23 19:00:00 30.7 14 Sudoeste 27 Sudoeste 0 -- -- 28
2020-06-23 18:00:00 31.2 17 Sudoeste 24 Sudoeste 0 -- -- 27
2020-06-23 17:00:00 31.8 15 Sudoeste 23 Sudoeste 0 -- -- 28
2020-06-23 16:00:00 31.7 13 Oeste 25 Sudoeste 0 -- -- 27
2020-06-23 15:00:00 31.6 13 Sudoeste 21 Sudoeste 0 -- -- 29
2020-06-23 14:00:00 31.3 14 Sudoeste 22 Sudoeste 0 -- -- 28
2020-06-23 13:00:00 30.6 9 Oeste 17 Oeste 0 -- -- 31
2020-06-23 12:00:00 28.4 11 Oeste 18 Sudoeste 0 -- -- 38
2020-06-23 11:00:00 26 10 Oeste 20 Sudoeste 0 -- -- 43
2020-06-23 10:00:00 23.7 11 Sudoeste 27 Sudoeste 0 -- -- 45
2020-06-23 09:00:00 19.8 17 Sudoeste 27 Sur 0 -- -- 51
2020-06-23 08:00:00 15.7 11 Oeste 22 Oeste 0 -- -- 61
2020-06-23 07:00:00 13.1 14 Oeste 22 Sudoeste 0 -- -- 69
2020-06-23 06:00:00 12.9 14 Sudoeste 21 Sudoeste 0 -- -- 71
2020-06-23 05:00:00 13.8 9 Sudoeste 24 Sudoeste 0 -- -- 68
2020-06-23 04:00:00 12.8 15 Sudoeste 22 Sudoeste 0 -- -- 74
2020-06-23 03:00:00 13.9 12 Sudoeste 21 Sudoeste 0 -- -- 69
2020-06-23 02:00:00 14.6 13 Oeste 17 Sudoeste 0 -- -- 68
2020-06-23 01:00:00 15.9 10 Sudoeste 17 Oeste 0 -- -- 65
2020-06-23 00:00:00 16.7 12 Oeste 15 Sudoeste 0 -- -- 60
2020-06-22 23:00:00 18.9 9 Sudoeste 13 Sudoeste 0 -- -- 59
2020-06-22 22:00:00 23.5 4 Sur 12 Oeste 0 -- -- 47
2020-06-22 21:00:00 27.5 8 Sudoeste 16 Sudoeste 0 -- -- 36
2020-06-22 20:00:00 29.2 12 Oeste 22 Sudoeste 0 -- -- 30
2020-06-22 19:00:00 30.1 14 Oeste 23 Oeste 0 -- -- 27
2020-06-22 18:00:00 31 8 Oeste 21 Oeste 0 -- -- 22
2020-06-22 17:00:00 31.2 7 Sur 22 Oeste 0 -- -- 25
2020-06-22 16:00:00 30.7 9 Sur 18 Sur 0 -- -- 23
2020-06-22 15:00:00 30.4 10 Sur 22 Sudoeste 0 -- -- 24
2020-06-22 14:00:00 29.7 9 Sudoeste 17 Sur 0 -- -- 25
2020-06-22 13:00:00 28.8 8 Oeste 13 Oeste 0 -- -- 32
2020-06-22 12:00:00 26.8 5 Norte 12 Nordeste 0 -- -- 34
2020-06-22 11:00:00 24.3 4 Oeste 12 Oeste 0 -- -- 36
2020-06-22 10:00:00 20.8 6 Sudoeste 17 Oeste 0 -- -- 51
2020-06-22 09:00:00 15.2 6 Sudoeste 17 Sudoeste 0 -- -- 66
2020-06-22 08:00:00 11.1 12 Sudoeste 17 Sudoeste 0 -- -- 79
2020-06-22 07:00:00 9.5 11 Sudoeste 18 Sudoeste 0 -- -- 82
2020-06-22 06:00:00 10.3 12 Sudoeste 16 Sudoeste 0 -- -- 77
2020-06-22 05:00:00 10.7 8 Oeste 15 Sudoeste 0 -- -- 75
2020-06-22 04:00:00 11.4 11 Sudoeste 15 Sudoeste 0 -- -- 72
2020-06-22 03:00:00 11.3 11 Sudoeste 14 Sudoeste 0 -- -- 73
2020-06-22 02:00:00 11.7 5 Sudoeste 8 Sudoeste 0 -- -- 74
2020-06-22 01:00:00 13.3 6 Sudoeste 9 Sudoeste 0 -- -- 69
2020-06-22 00:00:00 15.6 5 Oeste 8 Oeste 0 -- -- 61
2020-06-21 23:00:00 18.3 4 Oeste 6 Sudeste 0 -- -- 56
2020-06-21 22:00:00 22.9 0 Calma 17 Noroeste 0 -- -- 38
2020-06-21 21:00:00 25.9 11 Noroeste 24 Noroeste 0 -- -- 31
2020-06-21 20:00:00 27.6 11 Noroeste 23 Norte 0 -- -- 27
2020-06-21 19:00:00 28.5 6 Nordeste 21 Norte 0 -- -- 25
2020-06-21 18:00:00 28.7 9 Norte 18 Norte 0 -- -- 23
2020-06-21 17:00:00 28.3 11 Norte 23 Norte 0 -- -- 24
2020-06-21 16:00:00 27.4 12 Noroeste 22 Oeste 0 -- -- 30
2020-06-21 15:00:00 26.7 10 Nordeste 27 Noroeste 0 -- -- 35
2020-06-21 14:00:00 26 10 Noroeste 23 Norte 0 -- -- 38
2020-06-21 13:00:00 24.8 7 Norte 18 Norte 0 -- -- 40
2020-06-21 12:00:00 22.7 10 Norte 18 Norte 0 -- -- 46
2020-06-21 11:00:00 20.7 6 Nordeste 13 Nordeste 0 -- -- 52
2020-06-21 10:00:00 16.8 2 Noroeste 9 Oeste 0 -- -- 62
2020-06-21 09:00:00 13.5 2 Sudeste 10 Sudoeste 0 -- -- 77
2020-06-21 08:00:00 9.2 9 Sudoeste 12 Oeste 0 -- -- 87
2020-06-21 07:00:00 8 6 Oeste 10 Oeste 0 -- -- 89
2020-06-21 06:00:00 8.4 6 Oeste 10 Sudoeste 0 -- -- 90
2020-06-21 05:00:00 8.3 7 Sudoeste 10 Sudoeste 0 -- -- 89
2020-06-21 04:00:00 9.5 0 Calma 9 Sudoeste 0 -- -- 83
2020-06-21 03:00:00 10.2 3 Sudoeste 10 Sudoeste 0 -- -- 82
2020-06-21 02:00:00 11.2 2 Sur 12 Oeste 0 -- -- 78
2020-06-21 01:00:00 12.7 5 Oeste 9 Oeste 0 -- -- 75
2020-06-21 00:00:00 14.4 2 Sudoeste 8 Sudoeste 0 -- -- 68
2020-06-20 23:00:00 17 0 Calma 8 Noroeste 0 -- -- 57
2020-06-20 22:00:00 20.7 5 Sudoeste 11 Oeste 0 -- -- 46
2020-06-20 21:00:00 24.3 8 Oeste 15 Oeste 0 -- -- 32
2020-06-20 20:00:00 25.4 12 Oeste 26 Sudoeste 0 -- -- 31
2020-06-20 19:00:00 25.9 17 Sudoeste 34 Sudoeste 0 -- -- 32
2020-06-20 18:00:00 26.4 15 Oeste 29 Sudoeste 0 -- -- 33
2020-06-20 17:00:00 26.5 17 Sudoeste 31 Sudoeste 0 -- -- 32
2020-06-20 16:00:00 26.7 15 Sudoeste 31 Sudoeste 0 -- -- 30
2020-06-20 15:00:00 26.1 18 Sudoeste 28 Sudoeste 0 -- -- 32
2020-06-20 14:00:00 25.5 6 Sudoeste 18 Norte 0 -- -- 35
2020-06-20 13:00:00 25.1 6 Noroeste 18 Nordeste 0 -- -- 37
2020-06-20 12:00:00 23.3 8 Norte 18 Norte 0 -- -- 39
2020-06-20 11:00:00 20.3 7 Norte 13 Norte 0 -- -- 47
2020-06-20 10:00:00 17 5 Sudoeste 12 Sudoeste 0 -- -- 58
2020-06-20 09:00:00 13 9 Sudoeste 22 Sudoeste 0 -- -- 69
2020-06-20 08:00:00 8.9 11 Sudoeste 19 Sudoeste 0 -- -- 82
2020-06-20 07:00:00 7.2 14 Sudoeste 20 Sudoeste 0 -- -- 87
2020-06-20 06:00:00 7.4 7 Sudoeste 10 Oeste 0 -- -- 84
2020-06-20 05:00:00 7.3 5 Sudoeste 12 Sudoeste 0 -- -- 86
2020-06-20 04:00:00 8.3 9 Oeste 12 Sudoeste 0 -- -- 84
2020-06-20 03:00:00 8.6 5 Oeste 7 Oeste 0 -- -- 84
2020-06-20 02:00:00 9.9 3 Sudoeste 8 Oeste 0 -- -- 79
2020-06-20 01:00:00 11.8 6 Oeste 9 Sudoeste 0 -- -- 73
2020-06-20 00:00:00 13.3 5 Oeste 8 Sudoeste 0 -- -- 68
2020-06-19 23:00:00 15.9 3 Sudeste 10 Oeste 0 -- -- 57
2020-06-19 22:00:00 18.9 8 Oeste 12 Oeste 0 -- -- 49
2020-06-19 21:00:00 22.6 8 Oeste 19 Sudoeste 0 -- -- 34
2020-06-19 20:00:00 23.7 11 Oeste 30 Sudoeste 0 -- -- 30
2020-06-19 19:00:00 24.3 17 Sudoeste 29 Sudoeste 0 -- -- 34
2020-06-19 18:00:00 24.7 17 Sudoeste 27 Sudoeste 0 -- -- 36
2020-06-19 17:00:00 25.1 17 Sudoeste 24 Sudoeste 0 -- -- 30
2020-06-19 16:00:00 24.9 12 Oeste 28 Sudoeste 0 -- -- 33
2020-06-19 15:00:00 24.2 18 Sudoeste 29 Sudoeste 0 -- -- 36
2020-06-19 14:00:00 23.4 15 Sudoeste 34 Sudoeste 0 -- -- 39
2020-06-19 13:00:00 22.8 14 Sudoeste 25 Oeste 0 -- -- 43
2020-06-19 12:00:00 21.7 8 Norte 21 Norte 0 -- -- 45
2020-06-19 11:00:00 19.3 3 Oeste 7 Oeste 0 -- -- 49
2020-06-19 10:00:00 15.5 3 Sur 12 Sudoeste 0 -- -- 62
2020-06-19 09:00:00 11.7 7 Sudoeste 15 Sudoeste 0 -- -- 74
2020-06-19 08:00:00 7.3 9 Sudoeste 14 Sudoeste 0 -- -- 88
2020-06-19 07:00:00 5.9 6 Sudoeste 13 Oeste 0 -- -- 90
2020-06-19 06:00:00 6.2 3 Sudoeste 12 Sudoeste 0 -- -- 85
2020-06-19 05:00:00 6.6 4 Sudoeste 12 Sudoeste 0 -- -- 87
2020-06-19 04:00:00 7.8 8 Sudoeste 12 Oeste 0 -- -- 83
2020-06-19 03:00:00 8.2 0 Calma 6 Sudoeste 0 -- -- 81
2020-06-19 02:00:00 9.8 4 Sudoeste 8 Oeste 0 -- -- 78
2020-06-19 01:00:00 12 4 Oeste 11 Este 0 -- -- 72
2020-06-19 00:00:00 13.9 3 Sudeste 10 Este 0 -- -- 62
2020-06-18 23:00:00 16.4 5 Este 14 Noroeste 0 -- -- 53
2020-06-18 22:00:00 19.4 5 Noroeste 21 Noroeste 0 -- -- 44
2020-06-18 21:00:00 21.9 9 Noroeste 22 Noroeste 0 -- -- 41
2020-06-18 20:00:00 23 10 Noroeste 25 Noroeste 0 -- -- 39
2020-06-18 19:00:00 23.6 11 Oeste 43 Oeste 0 -- -- 37
2020-06-18 18:00:00 24.7 10 Noroeste 30 Nordeste 0 -- -- 33
2020-06-18 17:00:00 23.6 14 Noroeste 29 Norte 0 -- -- 36
2020-06-18 16:00:00 22.7 13 Noroeste 26 Norte 0 -- -- 39
2020-06-18 15:00:00 22.7 12 Norte 27 Norte 0 -- -- 42
2020-06-18 14:00:00 21.6 10 Norte 24 Norte 0 -- -- 45
2020-06-18 13:00:00 21.4 6 Noroeste 17 Nordeste 0 -- -- 44
2020-06-18 12:00:00 19.3 8 Norte 17 Norte 0 -- -- 48
2020-06-18 11:00:00 17.4 6 Norte 11 Norte 0 -- -- 54
2020-06-18 10:00:00 14.3 2 Oeste 11 Sudoeste 0 -- -- 64
2020-06-18 09:00:00 10.5 7 Sudoeste 11 Sudoeste 0 -- -- 79
2020-06-18 08:00:00 7.1 4 Sudoeste 8 Sudoeste 0 -- -- 88
2020-06-18 07:00:00 5.8 5 Sudoeste 11 Oeste 0 -- -- 90
2020-06-18 06:00:00 6.6 5 Sudoeste 9 Oeste 0 -- -- 89
2020-06-18 05:00:00 7.7 4 Sudoeste 9 Oeste 0 -- -- 86
2020-06-18 04:00:00 8.8 2 Sudeste 9 Oeste 0 -- -- 84
2020-06-18 03:00:00 10.8 5 Sudoeste 8 Oeste 0 -- -- 80
2020-06-18 02:00:00 12 0 Calma 6 Este 0 -- -- 73
2020-06-18 01:00:00 12.5 0 Calma 4 Sudoeste 0 -- -- 75
2020-06-18 00:00:00 13.6 0 Calma 6 Sudeste 0 -- -- 70
2020-06-17 23:00:00 14.6 4 Oeste 7 Oeste 0 -- -- 66
2020-06-17 22:00:00 16.4 2 Sur 12 Noroeste 0 -- -- 56
2020-06-17 21:00:00 18.9 6 Oeste 22 Norte 0 -- -- 45
2020-06-17 20:00:00 20.3 13 Noroeste 24 Noroeste 0 -- -- 40
2020-06-17 19:00:00 19.8 6 Oeste 21 Noroeste 0 -- -- 42
2020-06-17 18:00:00 19.8 9 Noroeste 18 Noroeste 0 -- -- 42
2020-06-17 17:00:00 19.9 11 Noroeste 25 Noroeste 0 -- -- 44
2020-06-17 16:00:00 21.5 10 Noroeste 25 Noroeste 0 -- -- 43
2020-06-17 15:00:00 19.6 8 Noroeste 23 Norte 0 -- -- 45
2020-06-17 14:00:00 19.4 9 Norte 20 Nordeste 0 -- -- 46
2020-06-17 13:00:00 18.1 9 Nordeste 22 Nordeste 0 -- -- 48
2020-06-17 12:00:00 16.3 7 Norte 16 Norte 0 -- -- 57
2020-06-17 11:00:00 14.4 7 Nordeste 12 Norte 0 -- -- 63
2020-06-17 10:00:00 12.3 5 Norte 12 Norte 0 -- -- 72
2020-06-17 09:00:00 11.3 4 Nordeste 7 Este 0 -- -- 73
2020-06-17 08:00:00 8.3 3 Sudoeste 10 Oeste 0 -- -- 84
2020-06-17 07:00:00 6.9 7 Oeste 9 Oeste 0 -- -- 89
2020-06-17 06:00:00 6.6 0 Calma 4 Sudoeste 0 -- -- 88
2020-06-17 05:00:00 7.6 3 Sudoeste 5 Oeste 0 -- -- 84
2020-06-17 04:00:00 9.8 3 Sur 12 Norte 0 -- -- 76
2020-06-17 03:00:00 11.1 3 Nordeste 10 Nordeste 0 -- -- 71
2020-06-17 02:00:00 11.7 5 Norte 20 Norte 0 -- -- 67
2020-06-17 01:00:00 13.4 6 Norte 19 Este 0 -- -- 61
2020-06-17 00:00:00 13.3 8 Este 26 Noroeste 0 -- -- 65
2020-06-16 23:00:00 15.1 8 Noroeste 22 Noroeste 0 -- -- 59
2020-06-16 22:00:00 16.2 9 Noroeste 22 Noroeste 0 -- -- 57
2020-06-16 21:00:00 18.1 13 Noroeste 28 Oeste 0 -- -- 47
2020-06-16 20:00:00 19.1 12 Noroeste 28 Oeste 0 -- -- 48
2020-06-16 19:00:00 19.6 15 Norte 26 Noroeste 0 -- -- 50
2020-06-16 18:00:00 17.8 13 Noroeste 38 Noroeste 0 -- -- 58
2020-06-16 17:00:00 21.4 14 Oeste 32 Noroeste 0 -- -- 37
2020-06-16 16:00:00 20.8 16 Noroeste 36 Oeste 0 -- -- 43
2020-06-16 15:00:00 20.9 21 Oeste 36 Noroeste 0 -- -- 42
2020-06-16 14:00:00 20.8 15 Noroeste 33 Oeste 0 -- -- 41
2020-06-16 13:00:00 19.4 11 Norte 24 Norte 0 -- -- 47
2020-06-16 12:00:00 18 8 Norte 15 Norte 0 -- -- 49
2020-06-16 11:00:00 15.7 3 Sudeste 8 Este 0 -- -- 62
2020-06-16 10:00:00 13.4 3 Nordeste 8 Norte 0 -- -- 76
2020-06-16 09:00:00 12 4 Nordeste 10 Norte 0 -- -- 80
2020-06-16 08:00:00 11 5 Norte 12 Norte 0 -- -- 84
2020-06-16 07:00:00 11 4 Noroeste 14 Norte 0 -- -- 83
2020-06-16 06:00:00 12.1 5 Nordeste 15 Norte 0 -- -- 78
2020-06-16 05:00:00 12.6 9 Norte 15 Norte 0 -- -- 74
2020-06-16 04:00:00 13 4 Norte 7 Norte 0 -- -- 72
2020-06-16 03:00:00 13.3 3 Norte 10 Norte 0 -- -- 70
2020-06-16 02:00:00 13.5 4 Norte 14 Norte 0 -- -- 69
2020-06-16 01:00:00 13.7 6 Norte 14 Norte 0 -- -- 68
2020-06-16 00:00:00 14 5 Norte 14 Nordeste 0 -- -- 67
2020-06-15 23:00:00 15.1 7 Norte 23 Norte 0 -- -- 61
2020-06-15 22:00:00 16.3 10 Norte 28 Norte 0 -- -- 57
2020-06-15 21:00:00 18.3 14 Noroeste 29 Noroeste 0 -- -- 51
2020-06-15 20:00:00 19.5 14 Norte 28 Norte 0 -- -- 50
2020-06-15 19:00:00 19.8 14 Noroeste 24 Noroeste 0 -- -- 49
2020-06-15 18:00:00 19.8 13 Noroeste 27 Norte 0 -- -- 49
2020-06-15 17:00:00 21.4 12 Noroeste 25 Norte 0 -- -- 48
2020-06-15 16:00:00 20.5 10 Norte 23 Norte 0 -- -- 52
2020-06-15 15:00:00 20 14 Norte 25 Norte 0 -- -- 52
2020-06-15 14:00:00 19.6 13 Norte 23 Norte 0 -- -- 52
2020-06-15 13:00:00 18.7 8 Norte 21 Norte 0 -- -- 54
2020-06-15 12:00:00 16.9 8 Norte 18 Norte 0 -- -- 61
2020-06-15 11:00:00 15.4 5 Norte 14 Norte 0 -- -- 64
2020-06-15 10:00:00 13.6 7 Nordeste 13 Nordeste 0 -- -- 72
2020-06-15 09:00:00 9.4 3 Sudoeste 7 Sudoeste 0 -- -- 87
2020-06-15 08:00:00 6.5 3 Sudoeste 9 Sudoeste 0 -- -- 92
2020-06-15 07:00:00 6 5 Sudoeste 10 Sudoeste 0 -- -- 92
2020-06-15 06:00:00 6.7 5 Oeste 7 Sudoeste 0 -- -- 91
2020-06-15 05:00:00 7.9 5 Oeste 8 Sudoeste 0 -- -- 89
2020-06-15 04:00:00 9 0 Calma 4 Sur 0 -- -- 86
2020-06-15 03:00:00 10.4 2 Sur 4 Sudoeste 0 -- -- 81
2020-06-15 02:00:00 12 0 Calma 6 Nordeste 0 -- -- 74
2020-06-15 01:00:00 12.6 3 Norte 10 Nordeste 0 -- -- 71
2020-06-15 00:00:00 13.6 4 Nordeste 11 Norte 0 -- -- 66
2020-06-14 23:00:00 15 5 Norte 18 Noroeste 0 -- -- 61
2020-06-14 22:00:00 16.1 5 Norte 18 Norte 0 -- -- 55
2020-06-14 21:00:00 17.6 8 Norte 28 Noroeste 0 -- -- 51
2020-06-14 20:00:00 18.9 12 Norte 26 Norte 0 -- -- 48
2020-06-14 19:00:00 19.2 15 Noroeste 29 Norte 0 -- -- 47
2020-06-14 18:00:00 19.6 17 Noroeste 31 Norte 0 -- -- 46
2020-06-14 17:00:00 20.4 13 Noroeste 26 Norte 0 -- -- 44
2020-06-14 16:00:00 19.3 12 Noroeste 27 Nordeste 0 -- -- 46
2020-06-14 15:00:00 19.6 9 Norte 22 Nordeste 0 -- -- 46
2020-06-14 14:00:00 19.2 8 Norte 22 Norte 0 -- -- 47
2020-06-14 13:00:00 17.8 10 Norte 18 Norte 0 -- -- 50
2020-06-14 12:00:00 16.9 7 Nordeste 17 Norte 0 -- -- 53
2020-06-14 11:00:00 14.8 10 Nordeste 18 Norte 0 -- -- 60
2020-06-14 10:00:00 13.2 5 Nordeste 12 Norte 0 -- -- 66
2020-06-14 09:00:00 9.7 3 Sudoeste 11 Sudoeste 0 -- -- 81
2020-06-14 08:00:00 5.9 6 Sudoeste 15 Sudoeste 0 -- -- 91
2020-06-14 07:00:00 5.4 9 Sudoeste 12 Sudoeste 0 -- -- 93
2020-06-14 06:00:00 6 5 Sudoeste 9 Oeste 0 -- -- 91
2020-06-14 05:00:00 7.2 3 Sudoeste 6 Oeste 0 -- -- 87
2020-06-14 04:00:00 7.9 3 Sudoeste 7 Oeste 0 -- -- 87
2020-06-14 03:00:00 7.7 4 Sudoeste 12 Oeste 0 -- -- 88
2020-06-14 02:00:00 8.2 8 Sudoeste 11 Oeste 0 -- -- 86
2020-06-14 01:00:00 9.6 0 Calma 11 Norte 0 -- -- 78
2020-06-14 00:00:00 11.6 5 Norte 13 Norte 0 -- -- 71
2020-06-13 23:00:00 12.7 0 Calma 12 Oeste 0 -- -- 63
2020-06-13 22:00:00 13.3 5 Sur 28 Oeste 0 -- -- 63
2020-06-13 21:00:00 14.5 18 Oeste 30 Oeste 0 -- -- 57
2020-06-13 20:00:00 15.3 19 Oeste 34 Oeste 0 -- -- 54
2020-06-13 19:00:00 16.1 17 Sudoeste 31 Sudoeste 0 -- -- 53
2020-06-13 18:00:00 16.6 21 Sudoeste 35 Sudoeste 0 -- -- 52
2020-06-13 17:00:00 18.7 17 Sudoeste 29 Sudoeste 0 -- -- 47
2020-06-13 16:00:00 18.2 16 Sudoeste 28 Sudoeste 0 -- -- 48
2020-06-13 15:00:00 17.6 10 Norte 23 Nordeste 0 -- -- 49
2020-06-13 14:00:00 16.2 11 Noroeste 18 Noroeste 0 -- -- 50
2020-06-13 13:00:00 15.4 5 Norte 17 Nordeste 0 -- -- 52
2020-06-13 12:00:00 14.2 3 Noroeste 12 Norte 0 -- -- 60
2020-06-13 11:00:00 13 6 Nordeste 12 Norte 0 -- -- 63
2020-06-13 10:00:00 11.2 4 Nordeste 12 Sudeste 0 -- -- 73
2020-06-13 09:00:00 10.4 4 Sudeste 8 Sudeste 0 -- -- 80
2020-06-13 08:00:00 7 3 Sur 9 Sur 0 -- -- 94
2020-06-13 07:00:00 6.9 4 Oeste 8 Oeste 0 -- -- 94
2020-06-13 06:00:00 7.4 2 Noroeste 10 Este 0 -- -- 91
2020-06-13 05:00:00 8.5 3 Norte 9 Este 0 -- -- 91
2020-06-13 04:00:00 8.5 5 Sudoeste 7 Oeste 0 -- -- 91
2020-06-13 03:00:00 8.6 3 Sur 9 Sur 0 -- -- 91
2020-06-13 02:00:00 8.8 5 Este 18 Oeste 0 -- -- 89
2020-06-13 01:00:00 9.4 8 Noroeste 21 Oeste 0 -- -- 80
2020-06-13 00:00:00 8.9 3 Sur 6 Oeste 0 -- -- 91
2020-06-12 23:00:00 8.8 3 Sudoeste 9 Norte 0.4 -- -- 90
2020-06-12 22:00:00 9.4 0 Calma 7 Noroeste 0 -- -- 88
2020-06-12 21:00:00 9.6 6 Sudoeste 24 Noroeste 1.4 -- -- 81
2020-06-12 20:00:00 10.6 5 Sur 19 Noroeste 1 -- -- 84
2020-06-12 19:00:00 10.7 2 Sudeste 33 Oeste 3.6 -- -- 83
2020-06-12 18:00:00 12.7 16 Oeste 43 Sudoeste 0 -- -- 69
2020-06-12 17:00:00 13.8 26 Sudoeste 44 Sudoeste 0 -- -- 65
2020-06-12 16:00:00 11.6 25 Oeste 40 Sudoeste 0 -- -- 78
2020-06-12 15:00:00 12.2 26 Sudoeste 42 Sudoeste 0 -- -- 70
2020-06-12 14:00:00 11 21 Sudoeste 33 Oeste 0 -- -- 75
2020-06-12 13:00:00 11.4 15 Sudoeste 34 Sudoeste 0 -- -- 69
2020-06-12 12:00:00 10.4 18 Sudoeste 30 Sudoeste 0 -- -- 71
2020-06-12 11:00:00 9.8 17 Sudoeste 24 Sudoeste 0 -- -- 73
2020-06-12 10:00:00 8.8 13 Sudoeste 29 Sudoeste 0 -- -- 75
2020-06-12 09:00:00 7.6 10 Sudoeste 23 Sudoeste 0 -- -- 78
2020-06-12 08:00:00 6 4 Sudeste 12 Sur 0 -- -- 80
2020-06-12 07:00:00 4.4 4 Sudeste 12 Oeste 0 -- -- 84
2020-06-12 06:00:00 3.2 6 Sudoeste 11 Sudoeste 0 -- -- 87
2020-06-12 05:00:00 4.3 5 Oeste 15 Oeste 0 -- -- 83
2020-06-12 04:00:00 4.7 11 Este 16 Este 0 -- -- 79
2020-06-12 03:00:00 6.3 3 Sudeste 15 Noroeste 0 -- -- 73
2020-06-12 02:00:00 7.6 5 Este 28 Noroeste 0 -- -- 69
2020-06-12 01:00:00 8.8 13 Norte 23 Norte 0 -- -- 65
2020-06-12 00:00:00 10.2 9 Noroeste 27 Oeste 0 -- -- 57
2020-06-11 23:00:00 11 14 Noroeste 39 Noroeste 0 -- -- 58
2020-06-11 22:00:00 12.9 17 Noroeste 38 Oeste 0 -- -- 60
2020-06-11 21:00:00 14 20 Oeste 40 Sudoeste 0 -- -- 57
2020-06-11 20:00:00 16.1 22 Sudoeste 38 Sudoeste 0 -- -- 50
2020-06-11 19:00:00 15.5 21 Sudoeste 43 Oeste 0 -- -- 65
2020-06-11 18:00:00 16.1 27 Sudoeste 44 Sudoeste 0 -- -- 64
2020-06-11 17:00:00 18.4 29 Sudoeste 46 Sudoeste 0 -- -- 52
2020-06-11 16:00:00 19 21 Sudoeste 34 Sudoeste 0 -- -- 52
2020-06-11 15:00:00 19.1 17 Oeste 40 Oeste 0 -- -- 46
2020-06-11 14:00:00 16.8 20 Noroeste 39 Noroeste 0 -- -- 49
2020-06-11 13:00:00 16 19 Norte 32 Norte 0 -- -- 56
2020-06-11 12:00:00 15.2 12 Norte 29 Norte 0 -- -- 58
2020-06-11 11:00:00 15.2 15 Norte 30 Norte 0 -- -- 57
2020-06-11 10:00:00 13.2 6 Norte 20 Norte 0 -- -- 65
2020-06-11 09:00:00 10.6 3 Sudoeste 6 Sur 0 -- -- 77
2020-06-11 08:00:00 6.9 3 Sur 8 Oeste 0 -- -- 87
2020-06-11 07:00:00 4.9 6 Sudoeste 9 Oeste 0 -- -- 89
2020-06-11 06:00:00 5.5 3 Oeste 5 Oeste 0 -- -- 87
2020-06-11 05:00:00 6.1 5 Sudoeste 8 Sudoeste 0 -- -- 83
2020-06-11 04:00:00 7 5 Sudoeste 13 Sudoeste 0 -- -- 79
2020-06-11 03:00:00 7.7 8 Oeste 12 Sudoeste 0 -- -- 73
2020-06-11 02:00:00 8.8 5 Oeste 9 Oeste 0 -- -- 71
2020-06-11 01:00:00 10.1 4 Este 8 Este 0 -- -- 63
2020-06-11 00:00:00 12 5 Sudoeste 11 Noroeste 0 -- -- 55
2020-06-10 23:00:00 15.1 8 Oeste 16 Oeste 0 -- -- 44
2020-06-10 22:00:00 16.6 5 Oeste 10 Sudoeste 0 -- -- 47
2020-06-10 21:00:00 19.7 10 Sudoeste 24 Sudoeste 0 -- -- 34
2020-06-10 20:00:00 20.5 15 Sudoeste 31 Sudoeste 0 -- -- 31
2020-06-10 19:00:00 21.1 15 Sudoeste 30 Sudoeste 0 -- -- 32
2020-06-10 18:00:00 22.3 18 Sudoeste 32 Sudoeste 0 -- -- 29
2020-06-10 17:00:00 22.3 21 Sudoeste 34 Sudoeste 0 -- -- 32
2020-06-10 16:00:00 22.2 17 Sudoeste 29 Sudoeste 0 -- -- 34
2020-06-10 15:00:00 22.1 12 Sudoeste 28 Sudoeste 0 -- -- 33
2020-06-10 14:00:00 21.5 16 Oeste 31 Oeste 0 -- -- 34
2020-06-10 13:00:00 21.1 13 Oeste 26 Sudoeste 0 -- -- 36
2020-06-10 12:00:00 20.4 6 Sudoeste 18 Sudoeste 0 -- -- 37
2020-06-10 11:00:00 17.7 8 Oeste 13 Sudoeste 0 -- -- 43
2020-06-10 10:00:00 14.2 6 Sudoeste 15 Sudoeste 0 -- -- 55
2020-06-10 09:00:00 10.6 8 Sudoeste 17 Sudoeste 0 -- -- 66
2020-06-10 08:00:00 6.8 11 Sudoeste 17 Sudoeste 0 -- -- 78
2020-06-10 07:00:00 5 12 Sudoeste 18 Sudoeste 0 -- -- 83
2020-06-10 06:00:00 5.6 6 Sudoeste 17 Sudoeste 0 -- -- 80
2020-06-10 05:00:00 5.4 12 Sudoeste 21 Sudoeste 0 -- -- 83
2020-06-10 04:00:00 7.1 14 Sudoeste 21 Sudoeste 0 -- -- 75
2020-06-10 03:00:00 7 11 Sudoeste 15 Sudoeste 0 -- -- 77
2020-06-10 02:00:00 7.7 6 Sudoeste 14 Oeste 0 -- -- 76
2020-06-10 01:00:00 9.1 8 Oeste 12 Oeste 0 -- -- 73
2020-06-10 00:00:00 10.3 5 Sudoeste 7 Oeste 0 -- -- 72
2020-06-09 23:00:00 12.8 5 Sudoeste 8 Sudoeste 0 -- -- 62
2020-06-09 22:00:00 16.6 5 Norte 10 Norte 0 -- -- 43
2020-06-09 21:00:00 18.2 5 Norte 17 Norte 0 -- -- 38
2020-06-09 20:00:00 19.7 6 Nordeste 18 Noroeste 0 -- -- 34
2020-06-09 19:00:00 20.5 6 Noroeste 17 Norte 0 -- -- 33
2020-06-09 18:00:00 20.4 8 Nordeste 26 Norte 0 -- -- 33
2020-06-09 17:00:00 20.3 14 Noroeste 33 Noroeste 0 -- -- 34
2020-06-09 16:00:00 20.6 14 Norte 27 Nordeste 0 -- -- 33
2020-06-09 15:00:00 19.7 13 Noroeste 31 Noroeste 0 -- -- 35
2020-06-09 14:00:00 19.2 17 Norte 32 Norte 0 -- -- 37
2020-06-09 13:00:00 18.3 10 Nordeste 23 Norte 0 -- -- 40
2020-06-09 12:00:00 17.5 10 Norte 22 Norte 0 -- -- 43
2020-06-09 11:00:00 15 7 Norte 15 Norte 0 -- -- 48
2020-06-09 10:00:00 12.3 5 Nordeste 10 Nordeste 0 -- -- 57
2020-06-09 09:00:00 8.7 3 Sur 11 Sudoeste 0 -- -- 69
2020-06-09 08:00:00 4.6 7 Sudoeste 15 Sudoeste 0 -- -- 83
2020-06-09 07:00:00 2.5 8 Sudoeste 15 Sudoeste 0 -- -- 88
2020-06-09 06:00:00 2.8 10 Oeste 14 Oeste 0 -- -- 88
2020-06-09 05:00:00 3.3 4 Sudoeste 14 Sudoeste 0 -- -- 85
2020-06-09 04:00:00 4 8 Sudoeste 13 Oeste 0 -- -- 83
2020-06-09 03:00:00 5 8 Sudoeste 15 Sudoeste 0 -- -- 79
2020-06-09 02:00:00 5.5 8 Oeste 15 Sudoeste 0 -- -- 78
2020-06-09 01:00:00 7 9 Sudoeste 15 Sudoeste 0 -- -- 73
2020-06-09 00:00:00 7.9 6 Sudoeste 10 Sudoeste 0 -- -- 71
2020-06-08 23:00:00 10.4 7 Sudoeste 10 Sudoeste 0 -- -- 61
2020-06-08 22:00:00 14.3 5 Norte 18 Norte 0 -- -- 43
2020-06-08 21:00:00 16.2 8 Norte 23 Este 0 -- -- 38
2020-06-08 20:00:00 17.7 12 Nordeste 23 Este 0 -- -- 35
2020-06-08 19:00:00 18.5 9 Norte 26 Noroeste 0 -- -- 32
2020-06-08 18:00:00 19.2 12 Noroeste 26 Noroeste 0 -- -- 32
2020-06-08 17:00:00 18.7 14 Noroeste 28 Norte 0 -- -- 34
2020-06-08 16:00:00 18.6 11 Norte 34 Norte 0 -- -- 38
2020-06-08 15:00:00 16.8 11 Nordeste 26 Noroeste 0 -- -- 43
2020-06-08 14:00:00 17.1 11 Norte 24 Norte 0 -- -- 42
2020-06-08 13:00:00 16 12 Norte 23 Norte 0 -- -- 45
2020-06-08 12:00:00 14.7 10 Norte 24 Norte 0 -- -- 48
2020-06-08 11:00:00 13.9 9 Norte 20 Norte 0 -- -- 52
2020-06-08 10:00:00 11.8 4 Norte 10 Norte 0 -- -- 62
2020-06-08 09:00:00 9.9 6 Norte 15 Norte 0 -- -- 72
2020-06-08 08:00:00 9.3 5 Norte 20 Noroeste 0 -- -- 77
2020-06-08 07:00:00 9.3 10 Norte 16 Norte 0 -- -- 79
2020-06-08 06:00:00 9 6 Norte 18 Nordeste 0 -- -- 81
2020-06-08 05:00:00 9.4 8 Nordeste 20 Norte 0 -- -- 81
2020-06-08 04:00:00 10 10 Norte 18 Norte 0 -- -- 84
2020-06-08 03:00:00 11 10 Nordeste 18 Nordeste 0 -- -- 79
2020-06-08 02:00:00 11 5 Este 8 Sudeste 0 -- -- 75
2020-06-08 01:00:00 11.9 5 Este 10 Este 0 -- -- 72
2020-06-08 00:00:00 13.1 5 Nordeste 15 Noroeste 0 -- -- 67
2020-06-07 23:00:00 12.4 5 Nordeste 13 Noroeste 0 -- -- 68
2020-06-07 22:00:00 14.6 0 Calma 15 Oeste 0 -- -- 58
2020-06-07 21:00:00 17.8 9 Noroeste 23 Oeste 0 -- -- 45
2020-06-07 20:00:00 18.9 10 Noroeste 30 Oeste 0 -- -- 46
2020-06-07 19:00:00 19.4 13 Noroeste 27 Oeste 0 -- -- 46
2020-06-07 18:00:00 18.6 14 Noroeste 30 Noroeste 0 -- -- 51
2020-06-07 17:00:00 17.6 17 Noroeste 34 Norte 0 -- -- 54
2020-06-07 16:00:00 18.4 14 Noroeste 37 Norte 0 -- -- 51
2020-06-07 15:00:00 16.9 12 Norte 28 Noroeste 0 -- -- 60
2020-06-07 14:00:00 16.9 14 Noroeste 27 Norte 0 -- -- 62
2020-06-07 13:00:00 15.2 9 Nordeste 21 Norte 0 -- -- 70
2020-06-07 12:00:00 14.6 8 Nordeste 15 Norte 0 -- -- 74
2020-06-07 11:00:00 13.4 6 Norte 11 Nordeste 0 -- -- 79
2020-06-07 10:00:00 11.7 3 Nordeste 7 Nordeste 0 -- -- 84
2020-06-07 09:00:00 9.6 5 Oeste 6 Sudoeste 0 -- -- 85
2020-06-07 08:00:00 8.4 3 Sudoeste 6 Oeste 0 -- -- 88
2020-06-07 07:00:00 7.7 5 Sudoeste 12 Sudoeste 0 -- -- 88
2020-06-07 06:00:00 8.3 9 Sudoeste 12 Oeste 0 -- -- 83
2020-06-07 05:00:00 9.5 4 Oeste 9 Sudoeste 0 -- -- 79
2020-06-07 04:00:00 10.2 5 Oeste 10 Oeste 0 -- -- 75
2020-06-07 03:00:00 8.9 6 Oeste 9 Oeste 0 -- -- 80
2020-06-07 02:00:00 9.9 5 Nordeste 9 Este 0 -- -- 70
2020-06-07 01:00:00 10.9 3 Sur 13 Nordeste 0 -- -- 66
2020-06-07 00:00:00 12.1 5 Este 10 Este 0 -- -- 63